createdAt,value
2022-11-26T00:03:03.582Z,10.43
2022-11-26T00:06:26.844Z,9.30
2022-11-26T00:09:33.260Z,11.30
2022-11-26T00:12:39.817Z,11.47
2022-11-26T00:15:46.187Z,8.90
2022-11-26T00:18:54.188Z,8.37
2022-11-26T00:22:00.571Z,8.50
2022-11-26T00:25:14.277Z,10.13
2022-11-26T00:28:30.506Z,10.60
2022-11-26T00:31:36.699Z,7.03
2022-11-26T00:34:44.693Z,6.90
2022-11-26T00:37:54.890Z,7.30
2022-11-26T00:41:01.385Z,6.80
2022-11-26T00:44:18.359Z,6.60
2022-11-26T00:47:24.546Z,7.20
2022-11-26T00:50:37.438Z,10.97
2022-11-26T00:53:44.797Z,10.40
2022-11-26T00:56:51.958Z,13.37
2022-11-26T00:59:58.674Z,8.90
2022-11-26T01:03:05.074Z,12.07
2022-11-26T01:06:17.496Z,8.83
2022-11-26T01:09:24.348Z,6.33
2022-11-26T01:12:30.883Z,5.73
2022-11-26T01:15:37.419Z,5.50
2022-11-26T01:18:43.912Z,4.70
2022-11-26T01:21:51.524Z,6.20
2022-11-26T01:24:57.873Z,6.50
2022-11-26T01:28:04.290Z,7.33
2022-11-26T01:31:15.733Z,6.10
2022-11-26T01:34:21.873Z,7.17
2022-11-26T01:37:29.730Z,9.57
2022-11-26T01:41:03.121Z,9.53
2022-11-26T01:44:17.857Z,7.77
2022-11-26T01:47:26.962Z,9.60
2022-11-26T01:51:01.941Z,7.83
2022-11-26T01:54:11.903Z,6.07
2022-11-26T01:57:21.981Z,6.67
2022-11-26T02:00:28.223Z,7.50
2022-11-26T02:03:41.794Z,7.63
2022-11-26T02:06:50.395Z,5.63
2022-11-26T02:09:57.577Z,9.33
2022-11-26T02:13:03.925Z,6.43
2022-11-26T02:16:18.494Z,7.13
2022-11-26T02:19:58.278Z,6.97
2022-11-26T02:23:39.873Z,6.93
2022-11-26T02:27:22.580Z,6.43
2022-11-26T02:30:31.729Z,6.53
2022-11-26T02:33:46.352Z,10.33
2022-11-26T02:36:55.069Z,8.07
2022-11-26T02:40:01.263Z,7.37
2022-11-26T02:43:07.578Z,8.47
2022-11-26T02:46:20.972Z,8.53
2022-11-26T02:49:30.284Z,7.07
2022-11-26T02:52:37.896Z,7.40
2022-11-26T02:55:47.926Z,7.77
2022-11-26T02:58:55.638Z,7.50
2022-11-26T03:02:11.151Z,6.33
2022-11-26T03:05:19.401Z,6.10
2022-11-26T03:08:26.638Z,13.17
2022-11-26T03:11:33.034Z,19.20
2022-11-26T03:14:39.802Z,13.23
2022-11-26T03:17:47.624Z,11.17
2022-11-26T03:20:53.896Z,7.83
2022-11-26T03:24:01.283Z,5.80
2022-11-26T03:27:07.912Z,7.03
2022-11-26T03:30:15.533Z,6.20
2022-11-26T03:33:23.082Z,5.87
2022-11-26T03:36:29.257Z,7.07
2022-11-26T03:39:35.561Z,7.27
2022-11-26T03:42:41.980Z,6.93
2022-11-26T03:45:48.438Z,7.57
2022-11-26T03:48:56.545Z,6.80
2022-11-26T03:52:02.883Z,7.43
2022-11-26T03:55:10.573Z,6.90
2022-11-26T03:58:18.217Z,7.20
2022-11-26T04:01:24.418Z,9.27
2022-11-26T04:04:32.361Z,7.87
2022-11-26T04:07:38.772Z,8.10
2022-11-26T04:10:44.997Z,8.60
2022-11-26T04:13:51.396Z,9.23
2022-11-26T04:16:57.823Z,7.93
2022-11-26T04:20:06.672Z,8.23
2022-11-26T04:23:13.121Z,6.63
2022-11-26T04:26:19.154Z,7.97
2022-11-26T04:29:25.402Z,6.63
2022-11-26T04:32:31.612Z,7.43
2022-11-26T04:35:39.799Z,8.30
2022-11-26T04:38:46.397Z,8.93
2022-11-26T04:41:52.633Z,7.93
2022-11-26T04:44:58.861Z,7.97
2022-11-26T04:48:06.129Z,10.67
2022-11-26T04:51:13.798Z,12.33
2022-11-26T04:54:20.322Z,12.27
2022-11-26T04:57:27.369Z,19.07
2022-11-26T05:00:33.642Z,18.23
2022-11-26T05:03:40.066Z,19.10
2022-11-26T05:06:47.841Z,16.37
2022-11-26T05:09:53.875Z,15.37
2022-11-26T05:13:00.040Z,28.93
2022-11-26T05:16:07.439Z,19.57
2022-11-26T05:19:13.362Z,20.67
2022-11-26T05:22:20.774Z,22.60
2022-11-26T05:25:27.075Z,22.67
2022-11-26T05:28:33.176Z,14.47
2022-11-26T05:31:39.396Z,12.97
2022-11-26T05:34:45.908Z,24.33
2022-11-26T05:37:53.828Z,18.90
2022-11-26T05:41:00.170Z,16.07
2022-11-26T05:44:06.576Z,17.67
2022-11-26T05:47:12.946Z,20.93
2022-11-26T05:50:19.720Z,24.53
2022-11-26T05:53:28.107Z,29.70
2022-11-26T05:56:34.893Z,22.70
2022-11-26T05:59:41.415Z,19.37
2022-11-26T06:02:47.838Z,25.13
2022-11-26T06:05:54.440Z,24.37
2022-11-26T06:09:02.126Z,23.23
2022-11-26T06:12:08.674Z,18.50
2022-11-26T06:15:14.604Z,14.47
2022-11-26T06:18:21.041Z,19.67
2022-11-26T06:21:27.147Z,23.37
2022-11-26T06:24:34.872Z,26.87
2022-11-26T06:27:41.959Z,35.70
2022-11-26T06:30:48.276Z,38.00
2022-11-26T06:33:56.346Z,31.63
2022-11-26T06:37:02.508Z,31.97
2022-11-26T06:40:17.128Z,32.07
2022-11-26T06:43:23.343Z,39.30
2022-11-26T06:46:43.672Z,35.33
2022-11-26T06:49:50.329Z,40.27
2022-11-26T06:52:56.613Z,41.00
2022-11-26T06:56:05.663Z,41.80
2022-11-26T06:59:12.220Z,37.67
2022-11-26T07:02:18.429Z,30.40
2022-11-26T07:05:24.937Z,29.50
2022-11-26T07:08:31.167Z,28.90
2022-11-26T07:11:39.907Z,27.87
2022-11-26T07:14:46.070Z,45.87
2022-11-26T07:17:52.424Z,37.57
2022-11-26T07:20:59.024Z,26.80
2022-11-26T07:24:06.554Z,26.50
2022-11-26T07:27:14.089Z,30.23
2022-11-26T07:30:20.889Z,28.40
2022-11-26T07:33:27.130Z,26.87
2022-11-26T07:36:33.259Z,21.97
2022-11-26T07:39:39.478Z,22.63
2022-11-26T07:42:51.800Z,15.10
2022-11-26T07:46:02.859Z,14.67
2022-11-26T07:49:09.515Z,9.10
2022-11-26T07:52:16.006Z,10.70
2022-11-26T07:55:22.199Z,7.83
2022-11-26T07:58:30.106Z,11.07
2022-11-26T08:01:38.297Z,8.90
2022-11-26T08:04:44.886Z,8.47
2022-11-26T08:07:51.389Z,8.23
2022-11-26T08:10:58.138Z,9.77
2022-11-26T08:14:08.037Z,8.80
2022-11-26T08:17:14.623Z,7.80
2022-11-26T08:20:24.522Z,10.27
2022-11-26T08:23:35.280Z,7.87
2022-11-26T08:26:44.103Z,8.40
2022-11-26T08:29:52.045Z,7.40
2022-11-26T08:32:58.447Z,12.63
2022-11-26T08:36:08.118Z,7.47
2022-11-26T08:39:17.562Z,9.07
2022-11-26T08:42:23.785Z,10.50
2022-11-26T08:45:31.320Z,7.40
2022-11-26T08:48:37.865Z,8.23
2022-11-26T08:51:44.622Z,6.87
2022-11-26T08:54:50.939Z,7.13
2022-11-26T08:57:57.341Z,7.13
2022-11-26T09:01:10.881Z,7.77
2022-11-26T09:04:17.227Z,5.10
2022-11-26T09:07:23.493Z,6.47
2022-11-26T09:10:29.884Z,5.23
2022-11-26T09:13:36.320Z,6.77
2022-11-26T09:16:44.331Z,5.87
2022-11-26T09:19:50.484Z,5.10
2022-11-26T09:22:56.699Z,5.97
2022-11-26T09:26:02.768Z,6.63
2022-11-26T09:29:09.570Z,5.67
2022-11-26T09:32:27.064Z,8.27
2022-11-26T09:35:37.313Z,8.93
2022-11-26T09:38:44.457Z,5.53
2022-11-26T09:42:11.881Z,6.60
2022-11-26T09:45:34.269Z,6.77
2022-11-26T09:48:43.398Z,4.73
2022-11-26T09:51:53.526Z,5.43
2022-11-26T09:55:09.438Z,5.10
2022-11-26T09:58:26.543Z,6.00
2022-11-26T10:01:34.741Z,6.73
2022-11-26T10:04:42.609Z,5.40
2022-11-26T10:08:00.972Z,6.17
2022-11-26T10:11:15.657Z,7.03
2022-11-26T10:14:34.151Z,6.83
2022-11-26T10:17:52.277Z,4.77
2022-11-26T10:21:11.448Z,6.63
2022-11-26T10:24:27.872Z,6.63
2022-11-26T10:27:36.265Z,7.30
2022-11-26T10:30:43.076Z,6.50
2022-11-26T10:33:58.640Z,7.33
2022-11-26T10:37:06.939Z,8.47
2022-11-26T10:40:21.538Z,6.63
2022-11-26T10:43:28.569Z,9.40
2022-11-26T10:46:37.787Z,10.40
2022-11-26T10:49:44.327Z,7.87
2022-11-26T10:52:53.204Z,9.10
2022-11-26T10:56:01.557Z,7.57
2022-11-26T10:59:19.817Z,6.87
2022-11-26T11:02:32.891Z,7.30
2022-11-26T11:05:40.212Z,8.77
2022-11-26T11:08:50.051Z,6.33
2022-11-26T11:12:20.426Z,6.43
2022-11-26T11:15:28.916Z,8.03
2022-11-26T11:18:36.609Z,8.20
2022-11-26T11:21:48.407Z,6.93
2022-11-26T11:24:59.510Z,5.33
2022-11-26T11:28:12.425Z,7.30
2022-11-26T11:31:21.108Z,6.67
2022-11-26T11:34:33.091Z,5.73
2022-11-26T11:37:49.587Z,5.33
2022-11-26T11:40:57.541Z,5.60
2022-11-26T11:44:08.528Z,8.20
2022-11-26T11:47:37.573Z,4.67
2022-11-26T11:50:46.918Z,5.43
2022-11-26T11:54:04.921Z,6.73
2022-11-26T11:57:23.923Z,8.80
2022-11-26T12:00:43.449Z,9.93
2022-11-26T12:04:26.581Z,7.83
2022-11-26T12:07:40.670Z,8.10
2022-11-26T12:10:59.472Z,9.20
2022-11-26T12:14:13.601Z,8.67
2022-11-26T12:17:33.226Z,8.03
2022-11-26T12:20:44.348Z,7.70
2022-11-26T12:23:56.820Z,6.97
2022-11-26T12:27:07.288Z,8.13
2022-11-26T12:30:18.229Z,7.23
2022-11-26T12:33:28.680Z,5.43
2022-11-26T12:36:43.799Z,5.73
2022-11-26T12:39:55.291Z,4.87
2022-11-26T12:43:11.661Z,6.33
2022-11-26T12:46:24.561Z,7.10
2022-11-26T12:49:37.803Z,6.87
2022-11-26T12:52:51.834Z,4.10
2022-11-26T12:56:06.216Z,5.27
2022-11-26T12:59:23.386Z,4.70
2022-11-26T13:02:33.974Z,4.43
2022-11-26T13:05:52.429Z,6.47
2022-11-26T13:09:05.668Z,4.30
2022-11-26T13:12:19.691Z,10.30
2022-11-26T13:15:31.605Z,6.60
2022-11-26T13:18:46.778Z,9.33
2022-11-26T13:22:28.098Z,8.57
2022-11-26T13:26:07.197Z,11.93
2022-11-26T13:29:31.713Z,9.70
2022-11-26T13:33:13.201Z,11.23
2022-11-26T13:36:51.886Z,14.63
2022-11-26T13:40:45.420Z,15.70
2022-11-26T13:44:21.219Z,18.37
2022-11-26T13:47:34.122Z,17.90
2022-11-26T13:50:46.944Z,26.63
2022-11-26T13:53:59.476Z,18.07
2022-11-26T13:57:11.313Z,16.77
2022-11-26T14:00:26.986Z,13.83
2022-11-26T14:03:54.292Z,43.17
2022-11-26T14:07:21.248Z,48.87
2022-11-26T14:10:43.845Z,31.13
2022-11-26T14:14:35.675Z,19.90
2022-11-26T14:17:57.752Z,26.17
2022-11-26T14:21:28.082Z,24.90
2022-11-26T14:25:06.762Z,37.00
2022-11-26T14:28:14.830Z,37.37
2022-11-26T14:31:25.264Z,33.97
2022-11-26T14:34:39.963Z,32.37
2022-11-26T14:37:53.673Z,23.83
2022-11-26T14:41:01.492Z,22.97
2022-11-26T14:44:11.861Z,21.80
2022-11-26T14:47:21.105Z,22.00
2022-11-26T14:50:27.555Z,19.73
2022-11-26T14:53:35.501Z,19.30
2022-11-26T14:56:46.437Z,22.47
2022-11-26T15:00:17.149Z,25.90
2022-11-26T15:03:26.602Z,28.33
2022-11-26T15:06:38.485Z,26.07
2022-11-26T15:09:44.998Z,21.13
2022-11-26T15:12:53.354Z,24.53
2022-11-26T15:16:02.653Z,15.83
2022-11-26T15:19:14.506Z,17.07
2022-11-26T15:22:23.418Z,16.77
2022-11-26T15:25:31.412Z,16.63
2022-11-26T15:28:39.277Z,36.63
2022-11-26T15:31:46.967Z,38.53
2022-11-26T15:34:54.287Z,29.63
2022-11-26T15:38:01.411Z,42.10
2022-11-26T15:41:10.028Z,33.43
2022-11-26T15:44:23.260Z,35.73
2022-11-26T15:47:31.652Z,28.63
2022-11-26T15:50:39.488Z,28.03
2022-11-26T15:53:48.565Z,29.30
2022-11-26T15:56:57.424Z,24.40
2022-11-26T16:00:07.353Z,29.57
2022-11-26T16:03:37.481Z,31.60
2022-11-26T16:06:43.754Z,28.70
2022-11-26T16:09:51.877Z,23.87
2022-11-26T16:13:17.954Z,24.60
2022-11-26T16:16:26.389Z,27.27
2022-11-26T16:19:34.800Z,30.13
2022-11-26T16:22:40.719Z,32.60
2022-11-26T16:26:17.715Z,39.93
2022-11-26T16:29:24.389Z,49.17
2022-11-26T16:32:30.521Z,62.07
2022-11-26T16:35:46.863Z,52.20
2022-11-26T16:38:53.861Z,46.90
2022-11-26T16:42:00.240Z,30.23
2022-11-26T16:45:07.762Z,16.40
2022-11-26T16:48:35.194Z,20.53
2022-11-26T16:51:42.923Z,13.70
2022-11-26T16:54:49.930Z,15.77
2022-11-26T16:57:59.706Z,25.17
2022-11-26T17:01:06.276Z,18.23
2022-11-26T17:04:14.036Z,18.00
2022-11-26T17:07:24.920Z,39.97
2022-11-26T17:10:31.573Z,43.93
2022-11-26T17:13:37.905Z,41.97
2022-11-26T17:16:44.335Z,52.27
2022-11-26T17:20:04.857Z,60.70
2022-11-26T17:23:12.444Z,50.80
2022-11-26T17:26:21.922Z,32.97
2022-11-26T17:29:42.938Z,39.30
2022-11-26T17:32:49.676Z,39.80
2022-11-26T17:35:56.970Z,42.00
2022-11-26T17:39:04.730Z,29.27
2022-11-26T17:42:11.243Z,29.03
2022-11-26T17:45:18.045Z,32.93
2022-11-26T17:48:36.047Z,37.80
2022-11-26T17:51:42.888Z,27.37
2022-11-26T17:54:50.812Z,13.33
2022-11-26T17:57:57.291Z,18.23
2022-11-26T18:01:03.918Z,16.57
2022-11-26T18:04:10.314Z,17.93
2022-11-26T18:07:18.787Z,50.30
2022-11-26T18:10:26.310Z,36.63
2022-11-26T18:13:32.441Z,28.33
2022-11-26T18:16:38.729Z,29.50
2022-11-26T18:19:45.697Z,30.93
2022-11-26T18:22:53.017Z,33.97
2022-11-26T18:26:00.772Z,31.20
2022-11-26T18:29:07.293Z,24.80
2022-11-26T18:32:13.442Z,26.20
2022-11-26T18:35:33.752Z,27.60
2022-11-26T18:38:40.249Z,49.27
2022-11-26T18:41:47.850Z,32.57
2022-11-26T18:44:54.241Z,40.50
2022-11-26T18:48:01.055Z,36.80
2022-11-26T18:51:07.728Z,42.20
2022-11-26T18:54:16.733Z,48.13
2022-11-26T18:57:24.541Z,59.37
2022-11-26T19:00:30.880Z,44.80
2022-11-26T19:03:41.128Z,48.00
2022-11-26T19:06:49.867Z,28.53
2022-11-26T19:09:56.274Z,22.03
2022-11-26T19:13:03.926Z,27.10
2022-11-26T19:16:16.689Z,28.57
2022-11-26T19:19:23.225Z,35.00
2022-11-26T19:22:29.750Z,35.50
2022-11-26T19:25:36.017Z,24.50
2022-11-26T19:28:44.070Z,34.30
2022-11-26T19:32:04.159Z,43.87
2022-11-26T19:35:13.984Z,45.43
2022-11-26T19:38:33.990Z,36.63
2022-11-26T19:41:40.333Z,47.93
2022-11-26T19:44:47.758Z,56.87
2022-11-26T19:47:54.157Z,53.10
2022-11-26T19:51:00.505Z,57.17
2022-11-26T19:54:07.274Z,56.10
2022-11-26T19:57:13.615Z,41.10
2022-11-26T20:00:21.973Z,33.03
2022-11-26T20:03:34.229Z,28.60
2022-11-26T20:06:43.923Z,40.70
2022-11-26T20:09:52.266Z,56.53
2022-11-26T20:12:58.491Z,56.03
2022-11-26T20:16:09.059Z,36.20
2022-11-26T20:19:15.570Z,31.13
2022-11-26T20:22:21.881Z,28.67
2022-11-26T20:25:29.772Z,35.50
2022-11-26T20:28:35.762Z,35.27
2022-11-26T20:31:46.548Z,32.93
2022-11-26T20:34:53.000Z,26.70
2022-11-26T20:37:59.070Z,32.83
2022-11-26T20:41:10.321Z,35.80
2022-11-26T20:44:16.978Z,34.77
2022-11-26T20:47:24.621Z,48.03
2022-11-26T20:50:30.828Z,38.63
2022-11-26T20:53:38.585Z,33.27
2022-11-26T20:56:45.242Z,36.40
2022-11-26T20:59:51.416Z,27.67
2022-11-26T21:03:00.961Z,22.73
2022-11-26T21:06:07.894Z,19.70
2022-11-26T21:09:14.757Z,31.13
2022-11-26T21:12:21.258Z,33.37
2022-11-26T21:15:27.361Z,33.30
2022-11-26T21:18:35.375Z,24.00
2022-11-26T21:21:42.260Z,12.83
2022-11-26T21:24:48.564Z,11.33
2022-11-26T21:27:55.966Z,14.17
2022-11-26T21:31:06.175Z,25.43
2022-11-26T21:34:14.698Z,25.70
2022-11-26T21:37:21.233Z,21.90
2022-11-26T21:40:28.669Z,20.57
2022-11-26T21:43:35.165Z,10.57
2022-11-26T21:46:41.771Z,30.10
2022-11-26T21:49:59.996Z,33.37
2022-11-26T21:53:07.300Z,35.70
2022-11-26T21:56:16.420Z,30.57
2022-11-26T21:59:22.698Z,23.07
2022-11-26T22:02:29.127Z,20.77
2022-11-26T22:05:36.916Z,21.53
2022-11-26T22:08:43.375Z,22.00
2022-11-26T22:11:49.844Z,18.07
2022-11-26T22:14:56.298Z,11.63
2022-11-26T22:18:02.916Z,11.70
2022-11-26T22:21:14.425Z,10.10
2022-11-26T22:24:21.545Z,10.70
2022-11-26T22:27:28.116Z,14.57
2022-11-26T22:30:34.621Z,14.93
2022-11-26T22:33:54.903Z,14.30
2022-11-26T22:37:03.036Z,25.10
2022-11-26T22:40:10.893Z,24.80
2022-11-26T22:43:17.089Z,21.47
2022-11-26T22:46:24.856Z,28.90
2022-11-26T22:49:31.163Z,21.93
2022-11-26T22:52:38.581Z,21.70
2022-11-26T22:55:50.958Z,17.57
2022-11-26T22:58:57.850Z,16.53
2022-11-26T23:02:04.161Z,14.97
2022-11-26T23:05:11.593Z,13.93
2022-11-26T23:08:20.682Z,21.27
2022-11-26T23:11:29.620Z,20.17
2022-11-26T23:14:36.106Z,14.17
2022-11-26T23:17:42.577Z,19.67
2022-11-26T23:20:48.572Z,18.03
2022-11-26T23:23:57.052Z,16.60
2022-11-26T23:27:03.476Z,13.77
2022-11-26T23:30:11.089Z,11.33
2022-11-26T23:33:17.453Z,10.53
2022-11-26T23:36:24.321Z,9.33
2022-11-26T23:39:31.910Z,9.10
2022-11-26T23:42:38.276Z,8.03
2022-11-26T23:45:58.699Z,8.00
2022-11-26T23:49:05.157Z,6.97
2022-11-26T23:52:11.273Z,8.17
2022-11-26T23:55:18.905Z,6.63
2022-11-26T23:58:25.005Z,8.77
